Time;durP1;ratioP1;P1;durP2;ratioP2;P2;SDS_P1;SDS_P2;PMS_P1;PMS_P2;Temp;Humidity;BMP_temperature;BMP_pressure;BME280_temperature;BME280_humidity;BME280_pressure;Samples;Min_cycle;Max_cycle;Signal;HPM_P1;HPM_P2
2022/07/10 00:01:01;;;;;;;5.88;2.30;;;;;;;16.93;65.00;102648.28;4921850;29;20059;-50
2022/07/10 00:03:29;;;;;;;6.88;2.30;;;;;;;16.91;65.44;102666.97;4903371;29;20067;-47
2022/07/10 00:05:56;;;;;;;5.50;2.25;;;;;;;16.87;65.50;102654.00;4942984;29;20055;-50
2022/07/10 00:08:24;;;;;;;5.32;2.15;;;;;;;16.83;65.72;102659.19;4944148;29;20035;-51
2022/07/10 00:10:52;;;;;;;7.65;2.58;;;;;;;16.79;65.71;102656.16;4920388;29;20046;-51
2022/07/10 00:13:20;;;;;;;7.28;2.10;;;;;;;16.81;65.99;102653.13;4945411;28;20043;-52
2022/07/10 00:15:47;;;;;;;7.40;2.45;;;;;;;16.79;66.21;102641.56;4938208;29;20131;-51
2022/07/10 00:18:15;;;;;;;6.82;2.45;;;;;;;16.77;66.00;102646.47;4937317;29;20487;-51
2022/07/10 00:20:43;;;;;;;9.15;2.30;;;;;;;16.76;66.05;102650.31;4939162;29;20058;-49
2022/07/10 00:23:10;;;;;;;10.27;2.92;;;;;;;16.72;66.09;102649.22;4944642;29;20046;-53
2022/07/10 00:25:38;;;;;;;10.68;2.47;;;;;;;16.58;66.76;102646.91;4939752;29;20052;-50
2022/07/10 00:28:06;;;;;;;7.72;2.42;;;;;;;16.52;66.72;102641.59;4937206;29;20499;-51
2022/07/10 00:30:33;;;;;;;10.32;2.70;;;;;;;16.50;66.91;102639.13;4939800;29;20062;-52
2022/07/10 00:33:01;;;;;;;12.15;3.10;;;;;;;16.51;66.71;102640.78;4947729;29;20044;-51
2022/07/10 00:35:28;;;;;;;7.00;2.35;;;;;;;16.54;67.00;102636.69;4938023;29;20075;-52
2022/07/10 00:37:56;;;;;;;10.93;2.75;;;;;;;16.53;66.89;102633.09;4964073;28;20055;-54
2022/07/10 00:40:24;;;;;;;6.13;2.58;;;;;;;16.54;66.86;102637.50;4949408;29;20043;-52
2022/07/10 00:42:51;;;;;;;7.07;2.03;;;;;;;16.55;66.56;102630.91;4944586;29;20495;-55
2022/07/10 00:45:19;;;;;;;14.20;2.80;;;;;;;16.54;66.76;102623.75;4936822;29;20118;-48
2022/07/10 00:47:47;;;;;;;10.25;2.97;;;;;;;16.51;66.72;102623.44;4937978;29;20087;-49
2022/07/10 00:50:14;;;;;;;7.05;2.40;;;;;;;16.52;67.03;102628.66;4937899;29;20047;-50
2022/07/10 00:52:42;;;;;;;9.65;2.65;;;;;;;16.55;66.60;102628.16;4919831;29;20036;-49
2022/07/10 00:55:10;;;;;;;5.80;2.22;;;;;;;16.56;66.77;102623.47;4936697;29;20048;-50
2022/07/10 00:57:38;;;;;;;6.78;2.00;;;;;;;16.58;66.34;102624.06;4904780;29;20047;-53
2022/07/10 01:00:06;;;;;;;8.27;2.80;;;;;;;16.57;66.58;102614.97;4936896;29;20052;-49
2022/07/10 01:02:34;;;;;;;7.90;2.50;;;;;;;16.55;66.83;102608.91;4937851;29;20376;-49
2022/07/10 01:05:02;;;;;;;9.05;2.55;;;;;;;16.57;66.74;102611.38;4936585;29;20508;-51
2022/07/10 01:07:31;;;;;;;10.80;2.58;;;;;;;16.56;66.91;102609.72;4920597;29;20058;-48
2022/07/10 01:09:59;;;;;;;11.43;2.80;;;;;;;16.54;66.82;102604.47;4940219;29;20039;-51
2022/07/10 01:12:28;;;;;;;5.35;2.30;;;;;;;16.52;67.25;102603.91;4919728;29;20051;-52
2022/07/10 01:14:55;;;;;;;5.68;2.17;;;;;;;16.53;67.31;102600.06;4938343;29;20048;-50
2022/07/10 01:17:25;;;;;;;6.20;2.30;;;;;;;16.52;67.39;102598.41;4919763;29;20067;-52
2022/07/10 01:19:53;;;;;;;7.65;2.72;;;;;;;16.51;67.55;102595.94;4936133;29;20050;-50
2022/07/10 01:22:20;;;;;;;7.95;3.00;;;;;;;16.46;67.42;102593.97;4936463;29;20051;-50
2022/07/10 01:24:48;;;;;;;7.05;2.63;;;;;;;16.43;67.26;102602.75;4938385;29;20047;-51
2022/07/10 01:27:15;;;;;;;7.57;2.70;;;;;;;16.37;67.94;102603.81;4922702;29;20040;-48
2022/07/10 01:29:44;;;;;;;6.50;2.47;;;;;;;16.34;68.16;102602.41;4919148;29;20047;-48
2022/07/10 01:32:12;;;;;;;12.30;2.80;;;;;;;16.33;68.25;102603.53;4936651;29;20047;-48
2022/07/10 01:34:40;;;;;;;7.20;2.55;;;;;;;16.32;68.10;102601.84;4944711;29;20411;-46
2022/07/10 01:37:08;;;;;;;9.45;3.03;;;;;;;16.31;68.24;102602.13;4937127;29;20043;-52
2022/07/10 01:39:35;;;;;;;8.70;3.03;;;;;;;16.30;68.37;102597.69;4943589;29;20048;-47
2022/07/10 01:42:03;;;;;;;10.75;3.03;;;;;;;16.29;68.33;102604.31;4935567;29;20074;-45
2022/07/10 01:44:31;;;;;;;7.93;2.70;;;;;;;16.26;68.74;102599.31;4952345;28;20095;-46
2022/07/10 01:46:59;;;;;;;6.95;2.35;;;;;;;16.28;68.57;102599.88;4935801;29;20521;-46
2022/07/10 01:49:26;;;;;;;10.38;3.05;;;;;;;16.31;68.71;102600.19;4935938;29;20403;-51
2022/07/10 01:51:54;;;;;;;8.32;2.90;;;;;;;16.32;68.70;102599.09;4936983;29;20044;-50
2022/07/10 01:54:21;;;;;;;6.32;2.63;;;;;;;16.33;68.27;102589.75;4937155;29;20051;-54
2022/07/10 01:56:49;;;;;;;7.32;2.60;;;;;;;16.28;68.33;102588.88;4935763;29;20050;-51
2022/07/10 01:59:20;;;;;;;8.85;2.63;;;;;;;16.24;68.95;102585.00;4921251;29;20036;-52
2022/07/10 02:01:47;;;;;;;8.40;2.75;;;;;;;16.17;68.97;102586.06;4935999;29;20073;-51
2022/07/10 02:07:01;;;;;;;7.82;3.03;;;;;;;16.13;69.09;102584.91;4935835;29;20074;-51
2022/07/10 02:09:29;;;;;;;11.95;3.42;;;;;;;16.11;69.54;102586.25;4935846;29;20040;-51
2022/07/10 02:11:56;;;;;;;9.32;3.20;;;;;;;16.09;69.46;102591.19;4935480;29;20050;-48
2022/07/10 02:14:24;;;;;;;10.80;3.88;;;;;;;16.06;69.60;102576.06;4936860;29;20078;-49
2022/07/10 02:16:52;;;;;;;7.55;3.35;;;;;;;16.04;69.64;102578.22;4936242;29;20056;-53
2022/07/10 02:19:20;;;;;;;8.70;3.08;;;;;;;16.01;70.14;102573.25;4938424;29;20062;-48
2022/07/10 02:21:47;;;;;;;12.85;3.10;;;;;;;16.00;70.14;102579.03;4935717;29;20063;-47
2022/07/10 02:24:15;;;;;;;10.27;3.30;;;;;;;15.98;70.42;102582.03;4935858;29;20050;-50
2022/07/10 02:26:42;;;;;;;13.57;3.45;;;;;;;15.98;70.39;102580.13;4919893;29;20051;-51
2022/07/10 02:29:10;;;;;;;10.18;3.55;;;;;;;15.98;69.99;102582.88;4936838;29;20380;-50
2022/07/10 02:31:40;;;;;;;9.52;3.17;;;;;;;15.95;70.46;102579.81;4918643;29;20056;-49
2022/07/10 02:34:09;;;;;;;12.63;3.30;;;;;;;15.91;70.62;102578.69;4922710;29;20519;-49
2022/07/10 02:36:40;;;;;;;9.25;3.17;;;;;;;15.84;71.02;102583.56;4947197;29;20047;-47
2022/07/10 02:39:09;;;;;;;8.75;2.83;;;;;;;15.82;71.09;102577.47;4935830;29;20039;-50
2022/07/10 02:41:36;;;;;;;8.48;2.95;;;;;;;15.81;71.48;102578.59;4919893;29;20051;-54
2022/07/10 02:44:04;;;;;;;8.32;2.90;;;;;;;15.82;71.49;102572.00;4918436;29;20047;-49
2022/07/10 02:46:32;;;;;;;8.55;2.78;;;;;;;15.84;71.42;102572.56;4936730;29;20036;-49
2022/07/10 02:49:00;;;;;;;8.98;3.30;;;;;;;15.86;71.40;102568.47;4935436;29;20051;-56
2022/07/10 02:51:27;;;;;;;8.30;3.22;;;;;;;15.86;71.56;102568.47;4935571;29;20511;-53
2022/07/10 02:53:55;;;;;;;9.10;2.80;;;;;;;15.81;71.64;102562.09;4939058;29;20043;-52
2022/07/10 02:56:22;;;;;;;9.43;2.83;;;;;;;15.81;71.94;102559.34;4940033;29;20054;-49
2022/07/10 02:58:50;;;;;;;8.90;2.92;;;;;;;15.83;71.99;102559.94;4938967;29;20044;-50
2022/07/10 03:01:18;;;;;;;7.22;2.92;;;;;;;15.83;71.99;102568.16;4925997;29;20047;-52
2022/07/10 03:03:45;;;;;;;8.85;2.97;;;;;;;15.81;72.15;102564.84;4938790;29;20075;-49
2022/07/10 03:06:13;;;;;;;11.02;3.35;;;;;;;15.80;72.33;102563.16;4941411;29;20406;-49
2022/07/10 03:08:41;;;;;;;7.75;2.88;;;;;;;15.80;72.09;102558.50;4928674;29;20043;-50
2022/07/10 03:11:09;;;;;;;5.53;2.80;;;;;;;15.79;72.52;102556.03;4938565;29;20048;-49
2022/07/10 03:13:37;;;;;;;10.52;3.40;;;;;;;15.79;72.34;102561.53;4938827;29;20055;-52
2022/07/10 03:16:05;;;;;;;8.57;2.80;;;;;;;15.77;72.52;102559.84;4938890;29;20090;-52
2022/07/10 03:18:33;;;;;;;8.68;3.17;;;;;;;15.71;72.58;102552.66;4952055;29;20055;-50
2022/07/10 03:21:01;;;;;;;9.40;3.22;;;;;;;15.68;72.98;102560.56;4953492;29;20102;-51
2022/07/10 03:23:28;;;;;;;9.00;3.15;;;;;;;15.66;73.35;102547.09;4941297;29;20036;-49
2022/07/10 03:25:56;;;;;;;7.85;3.13;;;;;;;15.68;73.28;102561.41;4938385;29;20495;-51
2022/07/10 03:28:23;;;;;;;9.77;3.28;;;;;;;15.68;73.60;102566.91;4939517;29;20052;-54
2022/07/10 03:30:51;;;;;;;9.32;2.95;;;;;;;15.69;73.58;102562.22;4939267;29;20058;-53
2022/07/10 03:33:19;;;;;;;10.20;2.58;;;;;;;15.71;73.59;102551.84;4938479;29;20052;-47
2022/07/10 03:35:46;;;;;;;6.60;2.90;;;;;;;15.72;73.83;102559.81;4939845;29;20043;-47
2022/07/10 03:38:14;;;;;;;8.77;3.50;;;;;;;15.74;73.38;102559.56;4947008;29;20047;-49
2022/07/10 03:40:42;;;;;;;8.32;3.00;;;;;;;15.74;73.73;102551.31;4939301;29;20046;-52
2022/07/10 03:43:09;;;;;;;8.65;3.13;;;;;;;15.73;73.54;102553.25;4938191;29;20166;-54
2022/07/10 03:45:37;;;;;;;9.55;3.30;;;;;;;15.71;73.67;102547.16;4938137;29;20047;-51
2022/07/10 03:48:05;;;;;;;11.68;3.33;;;;;;;15.66;74.29;102547.09;4939032;29;20039;-53
2022/07/10 03:50:33;;;;;;;6.65;2.60;;;;;;;15.61;74.22;102538.81;4921675;29;20509;-50
2022/07/10 03:53:01;;;;;;;11.45;3.15;;;;;;;15.61;74.68;102544.28;4938319;29;20479;-52
2022/07/10 03:55:29;;;;;;;6.70;2.60;;;;;;;15.60;74.71;102548.13;4937942;29;20051;-51
2022/07/10 03:57:57;;;;;;;8.57;2.75;;;;;;;15.60;74.78;102542.63;4951184;29;20400;-50
2022/07/10 04:00:26;;;;;;;8.75;3.10;;;;;;;15.59;74.90;102542.91;4912193;29;20043;-53
2022/07/10 04:02:58;;;;;;;8.55;2.90;;;;;;;15.55;75.13;102548.88;4920562;29;20430;-52
2022/07/10 04:05:26;;;;;;;10.38;3.35;;;;;;;15.54;75.68;102549.16;4919959;29;20048;-51
2022/07/10 04:07:56;;;;;;;8.20;2.90;;;;;;;15.55;75.89;102542.56;4920449;29;20115;-49
2022/07/10 04:10:25;;;;;;;9.80;3.13;;;;;;;15.55;75.64;102546.13;4937917;29;20052;-48
2022/07/10 04:12:53;;;;;;;9.23;3.25;;;;;;;15.58;75.97;102539.28;4920426;29;20483;-48
2022/07/10 04:15:21;;;;;;;9.63;3.00;;;;;;;15.58;75.81;102535.72;4922404;29;20062;-48
2022/07/10 04:17:49;;;;;;;7.47;2.78;;;;;;;15.59;75.96;102535.47;4920469;29;20053;-50
2022/07/10 04:20:19;;;;;;;8.68;2.95;;;;;;;15.63;76.16;102541.25;4920875;29;20443;-51
2022/07/10 04:22:47;;;;;;;9.02;3.47;;;;;;;15.62;76.30;102543.19;4937532;29;20044;-51
2022/07/10 04:25:14;;;;;;;9.95;3.17;;;;;;;15.63;76.44;102533.84;4922370;29;20032;-48
2022/07/10 04:27:42;;;;;;;7.13;2.70;;;;;;;15.61;76.16;102540.69;4920636;29;20048;-52
2022/07/10 04:30:10;;;;;;;10.68;2.92;;;;;;;15.59;76.57;102540.97;4920270;29;20044;-50
2022/07/10 04:32:38;;;;;;;12.52;3.72;;;;;;;15.61;76.67;102555.28;4937329;29;20077;-48
2022/07/10 04:35:06;;;;;;;6.88;2.88;;;;;;;15.59;77.00;102562.97;4938796;29;20043;-49
2022/07/10 04:37:34;;;;;;;7.30;3.00;;;;;;;15.59;77.08;102551.97;4937367;29;20051;-46
2022/07/10 04:40:03;;;;;;;7.05;3.08;;;;;;;15.59;76.91;102554.72;4920403;29;20443;-49
2022/07/10 04:42:30;;;;;;;8.88;3.25;;;;;;;15.59;77.44;102549.22;4936847;29;20059;-48
2022/07/10 04:44:58;;;;;;;7.25;2.88;;;;;;;15.56;77.15;102552.47;4937854;29;20047;-49
2022/07/10 04:47:26;;;;;;;7.25;3.20;;;;;;;15.55;77.65;102542.56;4936723;29;20036;-53
2022/07/10 04:49:53;;;;;;;11.68;3.20;;;;;;;15.57;78.04;102553.31;4937086;29;20048;-49
2022/07/10 04:52:21;;;;;;;9.85;3.28;;;;;;;15.60;77.67;102544.53;4936535;29;20046;-52
2022/07/10 04:54:48;;;;;;;8.88;2.92;;;;;;;15.63;77.97;102547.59;4937759;29;20130;-51
2022/07/10 04:57:16;;;;;;;7.28;2.90;;;;;;;15.65;77.48;102545.41;4936570;29;20039;-50
2022/07/10 04:59:44;;;;;;;9.27;2.95;;;;;;;15.60;78.23;102556.34;4936932;29;20055;-53
2022/07/10 05:02:11;;;;;;;14.30;3.38;;;;;;;15.58;78.57;102549.47;4936896;29;20130;-50
2022/07/10 05:04:39;;;;;;;8.98;3.60;;;;;;;15.59;78.49;102562.97;4942646;29;20075;-52
2022/07/10 05:07:07;;;;;;;11.68;3.53;;;;;;;15.60;78.82;102559.09;4937012;29;20055;-50
2022/07/10 05:09:34;;;;;;;9.40;3.13;;;;;;;15.61;79.12;102565.44;4936384;29;20035;-50
2022/07/10 05:12:02;;;;;;;8.02;3.20;;;;;;;15.63;78.56;102558.56;4936284;29;20050;-51
2022/07/10 05:14:30;;;;;;;11.05;3.22;;;;;;;15.67;78.81;102564.41;4924941;29;20047;-52
2022/07/10 05:16:57;;;;;;;8.93;2.97;;;;;;;15.68;78.61;102561.41;4928891;29;20380;-53
2022/07/10 05:19:25;;;;;;;8.13;3.17;;;;;;;15.69;78.79;102559.47;4919772;29;20043;-50
2022/07/10 05:21:53;;;;;;;7.97;3.00;;;;;;;15.68;79.05;102550.41;4936221;29;20491;-50
2022/07/10 05:24:20;;;;;;;12.20;3.08;;;;;;;15.69;79.55;102554.81;4938238;29;20527;-53
2022/07/10 05:26:48;;;;;;;9.52;3.15;;;;;;;15.70;79.77;102558.41;4936158;29;20058;-51
2022/07/10 05:29:15;;;;;;;10.73;3.47;;;;;;;15.70;79.29;102556.47;4936257;29;20063;-51
2022/07/10 05:31:44;;;;;;;9.00;3.08;;;;;;;15.72;79.78;102564.47;4918998;29;20048;-54
2022/07/10 05:34:11;;;;;;;9.52;3.30;;;;;;;15.73;79.88;102561.47;4946484;29;20498;-49
2022/07/10 05:36:39;;;;;;;8.18;2.90;;;;;;;15.75;79.79;102561.19;4936410;29;20075;-54
2022/07/10 05:39:07;;;;;;;13.95;3.33;;;;;;;15.74;79.69;102554.88;4936167;29;20784;-53
2022/07/10 05:41:34;;;;;;;9.73;3.35;;;;;;;15.72;80.13;102562.56;4935981;29;20044;-50
2022/07/10 05:44:02;;;;;;;6.15;2.58;;;;;;;15.74;80.17;102565.88;4938221;29;20043;-53
2022/07/10 05:46:30;;;;;;;11.05;3.42;;;;;;;15.77;80.38;102559.03;4918928;29;20048;-51
2022/07/10 05:48:58;;;;;;;10.60;2.90;;;;;;;15.81;79.66;102564.84;4935694;29;20500;-53
2022/07/10 05:51:25;;;;;;;9.55;3.03;;;;;;;15.85;79.89;102561.31;4936054;29;20398;-50
2022/07/10 05:54:00;;;;;;;6.65;2.63;;;;;;;15.86;79.89;102551.16;4940536;29;20046;-53
2022/07/10 05:56:28;;;;;;;12.70;3.05;;;;;;;15.86;80.08;102556.66;4935954;29;20039;-53
2022/07/10 05:58:56;;;;;;;11.95;3.08;;;;;;;15.84;80.26;102558.81;4934230;29;20044;-54
2022/07/10 06:01:25;;;;;;;7.95;2.85;;;;;;;15.87;80.14;102561.03;4918742;29;20118;-49
2022/07/10 06:03:54;;;;;;;13.63;3.95;;;;;;;15.87;80.26;102561.03;4937949;29;20516;-51
2022/07/10 06:06:21;;;;;;;12.05;3.30;;;;;;;15.86;80.16;102553.91;4946308;29;20135;-55
2022/07/10 06:08:49;;;;;;;8.65;2.92;;;;;;;15.88;80.54;102551.72;4929619;29;20407;-49
2022/07/10 06:11:17;;;;;;;11.05;3.13;;;;;;;15.90;80.04;102553.13;4933999;29;20036;-51
2022/07/10 06:13:44;;;;;;;11.20;3.13;;;;;;;15.91;80.06;102553.94;4945566;29;20051;-50
2022/07/10 06:16:12;;;;;;;10.20;2.80;;;;;;;15.92;79.92;102550.94;4936271;29;20056;-49
2022/07/10 06:18:39;;;;;;;9.02;2.97;;;;;;;15.95;79.63;102561.41;4935566;29;20048;-49
2022/07/10 06:21:08;;;;;;;10.73;3.13;;;;;;;15.98;79.04;102554.53;4935530;29;20078;-49
2022/07/10 06:23:35;;;;;;;9.73;2.70;;;;;;;16.00;78.65;102552.38;4935613;29;20055;-48
2022/07/10 06:26:03;;;;;;;9.07;2.80;;;;;;;16.04;78.61;102558.97;4937269;29;20474;-49
2022/07/10 06:28:33;;;;;;;11.05;2.78;;;;;;;16.03;78.33;102554.59;4937214;29;20527;-49
2022/07/10 06:31:01;;;;;;;11.95;3.22;;;;;;;16.06;78.15;102555.97;4940386;29;20047;-50
2022/07/10 06:33:28;;;;;;;11.73;3.10;;;;;;;16.04;78.57;102556.22;4940588;29;20126;-49
2022/07/10 06:35:56;;;;;;;10.90;2.88;;;;;;;16.05;78.42;102557.91;4929547;29;20494;-49
2022/07/10 06:38:24;;;;;;;10.43;2.63;;;;;;;16.03;78.51;102560.09;4938824;29;20487;-51
2022/07/10 06:40:52;;;;;;;10.15;2.58;;;;;;;16.06;78.59;102556.81;4938564;29;20131;-52
2022/07/10 06:43:20;;;;;;;11.02;2.75;;;;;;;16.11;78.68;102551.34;4948528;28;20044;-49
2022/07/10 06:45:48;;;;;;;14.65;3.38;;;;;;;16.13;78.44;102551.09;4947802;29;20047;-51
2022/07/10 06:48:16;;;;;;;12.35;3.22;;;;;;;16.12;78.78;102547.50;4944999;29;20051;-50
2022/07/10 06:50:44;;;;;;;9.88;2.78;;;;;;;16.17;78.84;102550.31;4939016;29;20046;-48
2022/07/10 06:53:11;;;;;;;12.50;2.97;;;;;;;16.21;78.20;102553.38;4939499;29;20047;-47
2022/07/10 06:55:39;;;;;;;9.82;2.97;;;;;;;16.25;78.61;102553.66;4939631;29;20039;-50
2022/07/10 06:58:07;;;;;;;13.45;3.20;;;;;;;16.25;78.54;102548.16;4923030;29;20040;-49
2022/07/10 07:00:34;;;;;;;9.95;2.70;;;;;;;16.25;77.89;102548.97;4938891;29;20051;-51
2022/07/10 07:03:02;;;;;;;11.50;3.58;;;;;;;16.21;77.51;102558.00;4938591;29;20048;-49
2022/07/10 07:05:30;;;;;;;13.45;2.90;;;;;;;16.16;77.65;102570.66;4939641;29;20122;-52
2022/07/10 07:07:58;;;;;;;10.40;2.90;;;;;;;16.14;77.17;102559.09;4957803;28;20082;-48
2022/07/10 07:10:26;;;;;;;12.77;3.17;;;;;;;16.11;77.42;102556.84;4938852;29;20047;-50
2022/07/10 07:12:53;;;;;;;10.02;2.83;;;;;;;16.17;77.74;102564.06;4938476;29;20131;-50
2022/07/10 07:15:23;;;;;;;10.15;2.83;;;;;;;16.24;77.47;102563.00;4938452;29;20063;-50
2022/07/10 07:18:07;;;;;;;11.23;3.00;;;;;;;16.22;77.32;102567.94;4942014;29;20044;-48
2022/07/10 07:23:23;;;;;;;11.25;2.80;;;;;;;16.33;77.27;102555.91;4957546;28;20557;-49
2022/07/10 07:25:50;;;;;;;9.90;2.60;;;;;;;16.37;77.80;102557.03;4921606;29;20422;-51
2022/07/10 07:28:19;;;;;;;10.45;3.08;;;;;;;16.35;77.15;102567.47;4922548;29;20464;-44
2022/07/10 07:30:50;;;;;;;11.45;2.80;;;;;;;16.34;76.79;102566.66;4925544;29;20051;-49
2022/07/10 07:33:18;;;;;;;12.57;3.03;;;;;;;16.34;77.29;102563.06;4938152;29;20491;-45
2022/07/10 07:35:46;;;;;;;9.88;2.78;;;;;;;16.36;76.96;102566.41;4924754;29;20046;-45
2022/07/10 07:38:14;;;;;;;8.60;3.00;;;;;;;16.38;77.59;102569.72;4937721;29;20487;-46
2022/07/10 07:40:41;;;;;;;10.07;2.85;;;;;;;16.40;77.28;102567.50;4939074;29;20047;-47
2022/07/10 07:43:09;;;;;;;13.27;3.53;;;;;;;16.40;77.58;102573.00;4929808;29;20054;-45
2022/07/10 07:45:37;;;;;;;9.52;2.58;;;;;;;16.41;77.72;102569.19;4938188;29;20131;-48
2022/07/10 07:48:05;;;;;;;14.02;2.75;;;;;;;16.43;77.82;102569.75;4938076;29;20489;-45
2022/07/10 07:50:34;;;;;;;13.57;2.90;;;;;;;16.40;78.33;102568.34;4920818;29;20047;-45
2022/07/10 07:53:03;;;;;;;14.93;3.60;;;;;;;16.36;78.53;102563.66;4937587;29;20054;-47
2022/07/10 07:55:32;;;;;;;9.35;2.50;;;;;;;16.36;78.89;102555.41;4937656;29;20036;-46
2022/07/10 07:58:01;;;;;;;8.13;2.78;;;;;;;16.38;79.22;102555.97;4937457;29;20534;-46
2022/07/10 08:00:29;;;;;;;11.80;2.65;;;;;;;16.41;78.86;102563.69;4922340;29;20451;-47
2022/07/10 08:02:59;;;;;;;11.60;2.78;;;;;;;16.42;78.62;102559.00;4923053;29;20051;-47
2022/07/10 08:05:26;;;;;;;9.27;2.85;;;;;;;16.42;78.70;102559.81;4931724;29;20412;-46
2022/07/10 08:07:57;;;;;;;14.73;3.50;;;;;;;16.43;79.00;102561.50;4920572;29;20047;-48
2022/07/10 08:10:26;;;;;;;8.93;2.65;;;;;;;16.41;79.74;102558.19;4942860;29;20133;-51
2022/07/10 08:12:54;;;;;;;9.18;2.70;;;;;;;16.40;79.82;102568.34;4926455;29;20525;-49
2022/07/10 08:15:22;;;;;;;9.90;2.83;;;;;;;16.42;79.91;102570.81;4937295;29;20501;-47
2022/07/10 08:17:52;;;;;;;10.40;3.00;;;;;;;16.44;79.20;102563.13;4920603;29;20126;-47
2022/07/10 08:20:20;;;;;;;12.45;3.45;;;;;;;16.48;79.63;102564.28;4920747;29;20451;-49
2022/07/10 08:22:48;;;;;;;9.70;3.33;;;;;;;16.49;79.65;102565.91;4906127;29;20078;-49
2022/07/10 08:25:23;;;;;;;13.65;3.22;;;;;;;16.49;79.72;102567.84;4937471;29;20451;-48
2022/07/10 08:27:50;;;;;;;10.80;3.22;;;;;;;16.48;79.76;102558.78;4904597;29;20050;-50
2022/07/10 08:30:18;;;;;;;10.68;3.13;;;;;;;16.52;80.14;102561.81;4924880;29;20047;-48
2022/07/10 08:32:46;;;;;;;10.13;2.85;;;;;;;16.53;79.46;102561.56;4920099;29;20052;-49
2022/07/10 08:35:14;;;;;;;9.43;2.63;;;;;;;16.55;79.77;102559.38;4938288;29;20036;-50
2022/07/10 08:37:45;;;;;;;10.38;2.92;;;;;;;16.58;79.53;102558.00;4948819;29;20510;-53
2022/07/10 08:40:15;;;;;;;11.73;3.17;;;;;;;16.59;79.81;102560.47;4936945;29;20554;-49
2022/07/10 08:42:45;;;;;;;9.93;2.88;;;;;;;16.59;80.11;102565.97;4937366;29;20119;-45
2022/07/10 08:45:13;;;;;;;7.55;2.75;;;;;;;16.57;80.19;102562.69;4937191;29;20055;-44
2022/07/10 08:47:42;;;;;;;12.68;3.15;;;;;;;16.58;80.27;102567.09;4904924;29;20055;-46
2022/07/10 08:50:17;;;;;;;8.85;2.80;;;;;;;16.55;79.65;102562.13;4940063;29;20071;-52
2022/07/10 08:52:55;;;;;;;9.13;3.03;;;;;;;16.54;80.00;102570.63;4919822;29;20044;-48
2022/07/10 08:55:25;;;;;;;14.40;3.08;;;;;;;16.51;80.06;102569.25;4936670;29;20529;-50
2022/07/10 08:57:55;;;;;;;14.23;2.88;;;;;;;16.52;79.92;102575.56;4920114;29;20106;-49
2022/07/10 09:00:24;;;;;;;9.02;3.05;;;;;;;16.49;79.88;102570.59;4921321;29;20470;-49
2022/07/10 09:02:55;;;;;;;11.05;3.30;;;;;;;16.47;80.15;102568.09;4919573;29;20063;-47
2022/07/10 09:05:26;;;;;;;11.32;3.15;;;;;;;16.51;80.16;102568.41;4919821;29;20044;-48
2022/07/10 09:07:54;;;;;;;9.75;2.80;;;;;;;16.52;80.19;102565.38;4919792;29;20126;-49
2022/07/10 09:10:26;;;;;;;14.45;3.45;;;;;;;16.58;79.92;102567.09;4919769;29;20134;-49
2022/07/10 09:13:01;;;;;;;17.98;3.35;;;;;;;16.63;79.33;102574.53;4937417;29;20051;-50
2022/07/10 09:15:32;;;;;;;12.50;3.53;;;;;;;16.63;79.13;102566.28;4949287;29;20060;-50
2022/07/10 09:18:02;;;;;;;13.98;3.50;;;;;;;16.67;79.30;102566.56;4936433;29;20051;-49
2022/07/10 09:20:46;;;;;;;10.45;2.70;;;;;;;16.72;79.55;102570.19;4919775;29;20569;-49
2022/07/10 09:23:21;;;;;;;13.13;3.08;;;;;;;16.78;79.16;102558.13;4936543;29;20055;-49
2022/07/10 09:25:51;;;;;;;8.90;2.67;;;;;;;16.82;78.35;102552.94;4937463;29;20521;-50
2022/07/10 09:28:20;;;;;;;10.32;3.35;;;;;;;16.85;78.50;102546.06;4936125;29;20503;-55
2022/07/10 09:30:48;;;;;;;7.05;2.80;;;;;;;16.87;78.44;102555.72;4936125;29;20134;-52
2022/07/10 09:33:26;;;;;;;9.25;3.00;;;;;;;16.90;77.94;102544.16;4919342;29;20058;-53
2022/07/10 09:36:07;;;;;;;8.05;2.78;;;;;;;16.90;77.99;102541.41;4919817;29;20095;-50
2022/07/10 09:38:44;;;;;;;11.95;3.00;;;;;;;16.92;78.64;102546.66;4938370;29;20502;-50
2022/07/10 09:41:19;;;;;;;8.98;2.70;;;;;;;16.94;78.69;102544.47;4947702;29;20051;-53
2022/07/10 09:43:48;;;;;;;6.85;2.88;;;;;;;16.95;78.64;102538.66;4941038;29;20058;-52
2022/07/10 09:46:17;;;;;;;11.05;2.90;;;;;;;16.97;78.42;102539.22;4942047;29;20128;-54
2022/07/10 09:48:45;;;;;;;9.60;2.50;;;;;;;16.97;78.71;102533.72;4938988;29;20048;-48
2022/07/10 09:51:13;;;;;;;6.70;2.70;;;;;;;17.01;77.84;102523.84;4941373;29;20135;-52
2022/07/10 09:53:43;;;;;;;12.23;3.15;;;;;;;17.02;77.13;102530.97;4923595;29;20134;-53
2022/07/10 09:56:13;;;;;;;8.90;2.63;;;;;;;17.04;76.88;102527.97;4939314;29;20043;-53
2022/07/10 09:58:41;;;;;;;8.52;2.83;;;;;;;17.09;77.40;102529.91;4944302;29;20048;-46
2022/07/10 10:01:10;;;;;;;8.60;2.97;;;;;;;17.16;77.34;102536.00;4919021;29;20168;-48
2022/07/10 10:03:40;;;;;;;10.13;3.28;;;;;;;17.19;76.75;102540.97;4936008;29;20068;-49
2022/07/10 10:06:15;;;;;;;7.60;3.13;;;;;;;17.23;76.26;102528.31;4919977;29;20055;-53
2022/07/10 10:08:59;;;;;;;7.93;3.65;;;;;;;17.27;75.25;102539.59;4950420;29;20396;-50
2022/07/10 10:11:28;;;;;;;13.10;3.58;;;;;;;17.26;75.10;102530.50;4903137;29;20040;-49
2022/07/10 10:13:56;;;;;;;8.45;3.25;;;;;;;17.29;75.17;102537.41;4918972;29;20044;-48
2022/07/10 10:16:26;;;;;;;9.73;3.30;;;;;;;17.35;75.36;102528.06;4922963;29;20055;-48
2022/07/10 10:21:41;;;;;;;12.75;3.15;;;;;;;17.54;73.35;102528.38;4921579;29;20047;-51
2022/07/10 10:24:08;;;;;;;5.82;2.53;;;;;;;17.60;73.32;102513.50;4935809;29;20055;-50
2022/07/10 10:26:36;;;;;;;9.13;3.30;;;;;;;17.62;73.27;102522.31;4918677;29;20050;-49
2022/07/10 10:29:06;;;;;;;10.20;3.53;;;;;;;17.64;74.13;102511.84;4935497;29;20039;-49
2022/07/10 10:31:34;;;;;;;8.85;2.80;;;;;;;17.70;74.24;102515.44;4935567;29;20123;-47
2022/07/10 10:34:02;;;;;;;8.77;2.92;;;;;;;17.75;73.64;102520.94;4918748;29;20044;-49
2022/07/10 10:36:44;;;;;;;9.68;3.03;;;;;;;17.77;73.64;102519.56;4936693;29;20126;-49
2022/07/10 10:39:13;;;;;;;8.25;2.88;;;;;;;17.79;73.90;102511.84;4922332;29;20055;-50
2022/07/10 10:41:42;;;;;;;9.35;3.20;;;;;;;17.86;74.25;102520.69;4935358;29;20040;-49
2022/07/10 10:44:12;;;;;;;11.75;3.15;;;;;;;17.84;74.27;102513.81;4935347;29;20039;-53
2022/07/10 10:47:02;;;;;;;9.00;2.80;;;;;;;17.86;74.03;102514.38;4941232;29;20048;-50
2022/07/10 10:49:51;;;;;;;7.57;2.63;;;;;;;17.88;72.69;102504.72;4937549;29;20039;-47
2022/07/10 10:52:21;;;;;;;7.38;2.70;;;;;;;17.91;71.74;102508.03;4935521;29;20055;-49
2022/07/10 10:54:59;;;;;;;6.03;2.50;;;;;;;17.98;72.52;102497.53;4918688;29;20058;-47
2022/07/10 10:57:37;;;;;;;6.97;2.70;;;;;;;18.05;72.94;102493.38;4940228;29;20078;-49
2022/07/10 11:00:07;;;;;;;7.35;2.45;;;;;;;18.13;72.38;102492.00;4944704;29;20110;-48
2022/07/10 11:02:39;;;;;;;8.35;2.72;;;;;;;18.16;71.58;102494.22;4920773;29;20118;-47
2022/07/10 11:05:19;;;;;;;5.95;2.78;;;;;;;18.18;71.82;102483.69;4919108;29;20073;-49
2022/07/10 11:08:02;;;;;;;8.10;2.97;;;;;;;18.25;71.99;102494.47;4937466;29;20086;-49
2022/07/10 11:10:38;;;;;;;7.10;2.80;;;;;;;18.27;70.14;102484.78;4935271;29;20048;-49
2022/07/10 11:13:16;;;;;;;9.88;2.85;;;;;;;18.31;70.09;102491.41;4935755;29;20047;-48
2022/07/10 11:15:46;;;;;;;7.28;2.67;;;;;;;18.34;69.88;102491.97;4943071;29;20047;-51
2022/07/10 11:18:15;;;;;;;8.35;2.88;;;;;;;18.37;70.72;102494.16;4953139;29;20050;-46
2022/07/10 11:20:45;;;;;;;9.88;2.65;;;;;;;18.39;70.21;102489.19;4938608;29;20082;-52
2022/07/10 11:23:24;;;;;;;10.02;2.95;;;;;;;18.39;70.65;102491.94;4944534;29;20051;-48
2022/07/10 11:26:12;;;;;;;6.28;2.60;;;;;;;18.40;71.52;102502.72;4944296;29;20058;-49
2022/07/10 11:28:58;;;;;;;10.23;2.97;;;;;;;18.42;71.14;102502.41;4926339;29;20035;-48
2022/07/10 11:31:26;;;;;;;;;;;;;;;18.40;69.91;102488.06;4938941;29;20051;-49
2022/07/10 11:33:55;;;;;;;7.15;2.35;;;;;;;18.42;70.88;102492.19;4938743;29;19929;-52
2022/07/10 11:36:31;;;;;;;6.22;2.30;;;;;;;18.48;70.20;102480.06;4939252;29;20047;-48
2022/07/10 11:39:04;;;;;;;10.23;3.03;;;;;;;18.55;70.05;102468.72;4938396;29;20058;-49